createdAt,value
2022-12-18T00:05:03.649Z,26.98
2022-12-18T00:10:07.822Z,21.23
2022-12-18T00:15:11.204Z,24.70
2022-12-18T00:20:15.467Z,26.35
2022-12-18T00:25:18.285Z,19.88
2022-12-18T00:30:21.428Z,23.30
2022-12-18T00:35:25.575Z,23.85
2022-12-18T00:40:29.063Z,23.13
2022-12-18T00:45:33.505Z,23.02
2022-12-18T00:50:37.678Z,25.67
2022-12-18T00:55:42.222Z,25.75
2022-12-18T01:00:46.206Z,24.88
2022-12-18T01:05:50.426Z,23.38
2022-12-18T01:10:55.008Z,24.17
2022-12-18T01:16:00.965Z,24.33
2022-12-18T01:21:09.610Z,22.67
2022-12-18T01:26:16.576Z,21.95
2022-12-18T01:31:22.005Z,20.25
2022-12-18T01:36:28.379Z,23.75
2022-12-18T01:41:53.611Z,22.35
2022-12-18T01:46:57.016Z,22.58
2022-12-18T01:52:01.110Z,21.67
2022-12-18T01:57:03.966Z,26.63
2022-12-18T02:02:08.192Z,21.38
2022-12-18T02:07:19.039Z,19.75
2022-12-18T02:12:36.063Z,20.75
2022-12-18T02:17:43.923Z,21.67
2022-12-18T02:23:02.993Z,23.23
2022-12-18T02:28:12.277Z,19.27
2022-12-18T02:33:16.787Z,21.30
2022-12-18T02:38:20.142Z,18.05
2022-12-18T02:43:27.323Z,20.42
2022-12-18T02:48:34.987Z,18.80
2022-12-18T02:53:45.332Z,22.50
2022-12-18T02:58:58.097Z,23.90
2022-12-18T03:04:15.639Z,21.10
2022-12-18T03:09:23.345Z,21.95
2022-12-18T03:14:32.042Z,18.10
2022-12-18T03:19:36.249Z,19.58
2022-12-18T03:24:40.578Z,16.58
2022-12-18T03:29:52.640Z,18.17
2022-12-18T03:35:04.749Z,24.77
2022-12-18T03:40:12.527Z,22.92
2022-12-18T03:45:24.348Z,21.27
2022-12-18T03:50:38.422Z,16.17
2022-12-18T03:55:43.721Z,21.75
2022-12-18T04:00:51.137Z,16.98
2022-12-18T04:05:56.752Z,19.15
2022-12-18T04:11:00.039Z,17.15
2022-12-18T04:16:05.446Z,21.35
2022-12-18T04:21:09.147Z,18.75
2022-12-18T04:26:13.320Z,18.50
2022-12-18T04:31:27.431Z,16.15
2022-12-18T04:36:30.494Z,20.35
2022-12-18T04:41:33.426Z,18.50
2022-12-18T04:46:38.134Z,15.70
2022-12-18T04:51:40.910Z,17.58
2022-12-18T04:56:43.668Z,19.58
2022-12-18T05:01:47.943Z,22.40
2022-12-18T05:06:51.222Z,21.23
2022-12-18T05:11:54.662Z,21.27
2022-12-18T05:17:01.042Z,17.63
2022-12-18T05:22:05.127Z,20.65
2022-12-18T05:27:10.634Z,22.55
2022-12-18T05:32:14.743Z,19.83
2022-12-18T05:37:17.931Z,19.17
2022-12-18T05:42:21.841Z,17.63
2022-12-18T05:47:25.987Z,18.83
2022-12-18T05:52:29.810Z,17.27
2022-12-18T05:57:33.313Z,16.77
2022-12-18T06:02:37.750Z,18.88
2022-12-18T06:07:40.862Z,25.52
2022-12-18T06:12:43.694Z,20.45
2022-12-18T06:17:47.795Z,18.20
2022-12-18T06:22:50.606Z,19.75
2022-12-18T06:27:53.481Z,16.60
2022-12-18T06:32:57.632Z,18.80
2022-12-18T06:38:00.386Z,20.80
2022-12-18T06:43:03.107Z,17.27
2022-12-18T06:48:07.510Z,16.73
2022-12-18T06:53:10.263Z,17.95
2022-12-18T06:58:13.193Z,20.40
2022-12-18T07:03:17.422Z,16.75
2022-12-18T07:08:20.469Z,21.55
2022-12-18T07:13:23.268Z,17.23
2022-12-18T07:18:27.442Z,18.83
2022-12-18T07:23:30.196Z,21.52
2022-12-18T07:28:33.696Z,18.85
2022-12-18T07:33:38.531Z,18.70
2022-12-18T07:38:42.079Z,18.75
2022-12-18T07:43:45.236Z,18.15
2022-12-18T07:48:50.333Z,18.35
2022-12-18T07:53:53.852Z,19.35
2022-12-18T07:58:56.921Z,16.80
2022-12-18T08:04:01.141Z,16.35
2022-12-18T08:09:25.604Z,20.15
2022-12-18T08:14:29.728Z,17.55
2022-12-18T08:19:36.161Z,20.92
2022-12-18T08:24:39.058Z,16.63
2022-12-18T08:29:42.049Z,16.95
2022-12-18T08:34:46.188Z,15.75
2022-12-18T08:39:49.104Z,17.33
2022-12-18T08:44:52.093Z,15.88
2022-12-18T08:49:56.227Z,16.35
2022-12-18T08:54:59.129Z,17.88
2022-12-18T09:00:02.000Z,21.02
2022-12-18T09:05:07.256Z,16.48
2022-12-18T09:10:10.722Z,15.60
2022-12-18T09:15:13.602Z,18.17
2022-12-18T09:20:19.587Z,17.92
2022-12-18T09:25:22.492Z,18.13
2022-12-18T09:30:26.498Z,19.83
2022-12-18T09:35:32.364Z,15.93
2022-12-18T09:40:43.301Z,22.20
2022-12-18T09:45:49.419Z,16.50
2022-12-18T09:50:57.895Z,14.60
2022-12-18T09:56:03.830Z,15.73
2022-12-18T10:01:12.028Z,18.10
2022-12-18T10:11:35.023Z,18.45
2022-12-18T10:16:49.507Z,15.30
2022-12-18T10:22:03.133Z,15.55
2022-12-18T10:27:15.806Z,17.83
2022-12-18T10:32:20.986Z,16.13
2022-12-18T10:37:27.395Z,14.70
2022-12-18T10:42:30.389Z,17.35
2022-12-18T10:47:35.847Z,18.05
2022-12-18T10:52:45.141Z,22.45
2022-12-18T10:57:52.435Z,18.25
2022-12-18T11:02:55.730Z,18.05
2022-12-18T11:08:02.723Z,15.85
2022-12-18T11:13:19.627Z,22.70
2022-12-18T11:18:29.082Z,22.77
2022-12-18T11:23:33.375Z,18.35
2022-12-18T11:28:39.356Z,19.30
2022-12-18T11:34:11.982Z,21.67
2022-12-18T11:39:18.337Z,22.00
2022-12-18T11:44:27.121Z,19.27
2022-12-18T11:49:35.736Z,18.25
2022-12-18T11:54:39.856Z,20.20
2022-12-18T11:59:50.794Z,21.13
2022-12-18T12:05:14.251Z,22.77
2022-12-18T12:10:36.875Z,20.33
2022-12-18T12:15:50.911Z,22.80
2022-12-18T12:21:04.048Z,22.38
2022-12-18T12:26:10.795Z,21.80
2022-12-18T12:31:23.494Z,20.77
2022-12-18T12:36:37.836Z,25.73
2022-12-18T12:42:03.054Z,19.05
2022-12-18T12:47:14.134Z,20.60
2022-12-18T12:52:24.600Z,18.20
2022-12-18T12:57:36.516Z,22.50
2022-12-18T13:02:44.678Z,19.10
2022-12-18T13:07:53.137Z,20.70
2022-12-18T13:13:02.210Z,24.25
2022-12-18T13:18:15.452Z,22.42
2022-12-18T13:23:31.369Z,25.67
2022-12-18T13:28:55.627Z,25.83
2022-12-18T13:34:26.241Z,27.23
2022-12-18T13:39:35.898Z,26.35
2022-12-18T13:44:42.491Z,28.00
2022-12-18T13:49:46.428Z,28.55
2022-12-18T13:54:53.139Z,25.38
2022-12-18T13:59:59.408Z,27.23
2022-12-18T14:05:02.348Z,28.42
2022-12-18T14:10:26.022Z,31.38
2022-12-18T14:15:35.236Z,30.90
2022-12-18T14:20:42.121Z,28.58
2022-12-18T14:25:48.436Z,30.50
2022-12-18T14:30:52.654Z,31.52
2022-12-18T14:35:58.753Z,32.47
2022-12-18T14:41:04.178Z,32.30
2022-12-18T14:46:27.658Z,34.55
2022-12-18T14:51:33.306Z,35.55
2022-12-18T14:56:37.939Z,28.90
2022-12-18T15:01:49.532Z,28.20
2022-12-18T15:07:05.610Z,33.65
2022-12-18T15:12:26.613Z,33.58
2022-12-18T15:17:30.885Z,34.42
2022-12-18T15:22:37.839Z,41.72
2022-12-18T15:27:40.671Z,37.67
2022-12-18T15:32:45.690Z,35.10
2022-12-18T15:37:48.507Z,35.97
2022-12-18T15:43:13.038Z,41.25
2022-12-18T15:48:22.836Z,38.92
2022-12-18T15:53:27.133Z,35.28
2022-12-18T15:58:29.975Z,35.15
2022-12-18T16:03:34.163Z,34.72
2022-12-18T16:08:37.431Z,41.05
2022-12-18T16:13:42.669Z,38.42
2022-12-18T16:18:47.255Z,33.70
2022-12-18T16:23:50.381Z,33.45
2022-12-18T16:28:54.119Z,35.38
2022-12-18T16:39:25.244Z,33.05
2022-12-18T16:44:29.416Z,36.72
2022-12-18T16:49:32.231Z,32.55
2022-12-18T16:54:36.727Z,30.40
2022-12-18T16:59:39.573Z,31.35
2022-12-18T17:04:43.286Z,34.72
2022-12-18T17:09:47.350Z,34.00
2022-12-18T17:14:50.092Z,31.15
2022-12-18T17:19:53.943Z,31.17
2022-12-18T17:24:58.119Z,33.88
2022-12-18T17:30:00.878Z,37.00
2022-12-18T17:35:07.128Z,34.17
2022-12-18T17:40:13.109Z,32.40
2022-12-18T17:45:15.877Z,25.75
2022-12-18T17:50:18.735Z,28.05
2022-12-18T17:55:22.993Z,28.13
2022-12-18T18:00:25.828Z,33.10
2022-12-18T18:05:28.661Z,30.17
2022-12-18T18:10:33.797Z,33.33
2022-12-18T18:15:41.067Z,29.17
2022-12-18T18:20:43.827Z,28.77
2022-12-18T18:25:48.967Z,26.05
2022-12-18T18:30:52.537Z,26.17
2022-12-18T18:35:55.315Z,24.65
2022-12-18T18:41:04.002Z,24.65
2022-12-18T18:46:07.574Z,24.38
2022-12-18T18:51:15.574Z,25.50
2022-12-18T19:01:52.535Z,20.48
2022-12-18T19:06:55.838Z,20.17
2022-12-18T19:12:17.252Z,18.90
2022-12-18T19:17:23.691Z,21.67
2022-12-18T19:22:30.825Z,20.75
2022-12-18T19:27:38.463Z,20.98
2022-12-18T19:32:42.279Z,26.52
2022-12-18T19:37:45.142Z,24.88
2022-12-18T19:42:49.459Z,20.02
2022-12-18T19:47:52.226Z,18.48
2022-12-18T19:52:54.978Z,20.95
2022-12-18T19:57:59.546Z,21.25
2022-12-18T20:03:12.869Z,22.42
2022-12-18T20:08:21.240Z,22.08
2022-12-18T20:13:25.393Z,21.90
2022-12-18T20:18:30.625Z,24.48
2022-12-18T20:23:34.542Z,23.30
2022-12-18T20:28:41.333Z,22.98
2022-12-18T20:33:47.539Z,24.73
2022-12-18T20:38:54.714Z,24.87
2022-12-18T20:44:03.692Z,35.47
2022-12-18T20:49:08.682Z,23.98
2022-12-18T20:54:16.328Z,24.35
2022-12-18T20:59:25.462Z,25.35
2022-12-18T21:04:28.345Z,23.88
2022-12-18T21:09:37.269Z,29.83
2022-12-18T21:14:43.251Z,26.45
2022-12-18T21:19:46.016Z,25.35
2022-12-18T21:24:49.306Z,24.73
2022-12-18T21:29:53.494Z,26.83
2022-12-18T21:35:02.223Z,23.42
2022-12-18T21:40:06.406Z,31.60
2022-12-18T21:45:12.129Z,25.02
2022-12-18T21:50:14.984Z,25.95
2022-12-18T21:55:17.973Z,28.70
2022-12-18T22:00:22.884Z,28.13
2022-12-18T22:05:25.809Z,27.75
2022-12-18T22:10:28.626Z,22.73
2022-12-18T22:15:32.996Z,25.98
2022-12-18T22:20:35.793Z,24.08
2022-12-18T22:25:39.951Z,26.48
2022-12-18T22:30:44.491Z,26.65
2022-12-18T22:35:47.263Z,28.67
2022-12-18T22:40:51.037Z,26.38
2022-12-18T22:45:55.323Z,30.45
2022-12-18T22:50:59.490Z,27.83
2022-12-18T22:56:02.662Z,29.13
2022-12-18T23:01:09.655Z,27.15
2022-12-18T23:06:12.755Z,29.70
2022-12-18T23:11:17.492Z,26.30
2022-12-18T23:16:23.084Z,27.92
2022-12-18T23:21:26.091Z,30.05
2022-12-18T23:26:30.355Z,32.33
2022-12-18T23:31:36.824Z,24.60
2022-12-18T23:36:45.731Z,30.55
2022-12-18T23:41:53.947Z,28.45
2022-12-18T23:47:03.475Z,29.20
2022-12-18T23:52:06.453Z,31.10
2022-12-18T23:57:09.455Z,31.52
